sensor_id;sensor_type;location;lat;lon;timestamp;P1;durP1;ratioP1;P2;durP2;ratioP2
9328;SDS011;4703;48.748;19.142;2022-11-15T00:01:09;26.37;;;20.20;;
9328;SDS011;4703;48.748;19.142;2022-11-15T00:03:43;24.30;;;18.73;;
9328;SDS011;4703;48.748;19.142;2022-11-15T00:06:10;26.13;;;20.40;;
9328;SDS011;4703;48.748;19.142;2022-11-15T00:08:37;25.77;;;20.67;;
9328;SDS011;4703;48.748;19.142;2022-11-15T00:11:04;30.20;;;20.23;;
9328;SDS011;4703;48.748;19.142;2022-11-15T00:13:31;25.57;;;19.73;;
9328;SDS011;4703;48.748;19.142;2022-11-15T00:16:00;25.93;;;20.60;;
9328;SDS011;4703;48.748;19.142;2022-11-15T00:18:27;24.53;;;18.60;;
9328;SDS011;4703;48.748;19.142;2022-11-15T00:20:55;28.37;;;20.33;;
9328;SDS011;4703;48.748;19.142;2022-11-15T00:23:29;29.13;;;21.57;;
9328;SDS011;4703;48.748;19.142;2022-11-15T00:25:56;24.87;;;20.50;;
9328;SDS011;4703;48.748;19.142;2022-11-15T00:28:24;28.20;;;20.60;;
9328;SDS011;4703;48.748;19.142;2022-11-15T00:30:52;25.20;;;19.77;;
9328;SDS011;4703;48.748;19.142;2022-11-15T00:33:19;27.33;;;20.10;;
9328;SDS011;4703;48.748;19.142;2022-11-15T00:35:46;26.93;;;19.13;;
9328;SDS011;4703;48.748;19.142;2022-11-15T00:38:13;22.03;;;18.43;;
9328;SDS011;4703;48.748;19.142;2022-11-15T00:40:40;26.07;;;20.50;;
9328;SDS011;4703;48.748;19.142;2022-11-15T00:43:07;30.03;;;19.63;;
9328;SDS011;4703;48.748;19.142;2022-11-15T00:45:34;24.30;;;18.77;;
9328;SDS011;4703;48.748;19.142;2022-11-15T00:48:01;27.37;;;18.47;;
9328;SDS011;4703;48.748;19.142;2022-11-15T00:50:29;26.70;;;18.40;;
9328;SDS011;4703;48.748;19.142;2022-11-15T00:52:56;25.93;;;18.17;;
9328;SDS011;4703;48.748;19.142;2022-11-15T00:55:23;25.10;;;18.30;;
9328;SDS011;4703;48.748;19.142;2022-11-15T00:57:51;22.87;;;17.03;;
9328;SDS011;4703;48.748;19.142;2022-11-15T01:00:18;28.10;;;17.57;;
9328;SDS011;4703;48.748;19.142;2022-11-15T01:02:45;22.13;;;16.63;;
9328;SDS011;4703;48.748;19.142;2022-11-15T01:05:12;19.60;;;16.17;;
9328;SDS011;4703;48.748;19.142;2022-11-15T01:07:39;22.67;;;16.20;;
9328;SDS011;4703;48.748;19.142;2022-11-15T01:10:06;23.13;;;16.40;;
9328;SDS011;4703;48.748;19.142;2022-11-15T01:12:34;23.97;;;16.30;;
9328;SDS011;4703;48.748;19.142;2022-11-15T01:15:02;21.43;;;16.07;;
9328;SDS011;4703;48.748;19.142;2022-11-15T01:17:31;23.77;;;17.07;;
9328;SDS011;4703;48.748;19.142;2022-11-15T01:19:57;21.33;;;15.67;;
9328;SDS011;4703;48.748;19.142;2022-11-15T01:22:24;22.27;;;15.93;;
9328;SDS011;4703;48.748;19.142;2022-11-15T01:24:52;26.10;;;16.30;;
9328;SDS011;4703;48.748;19.142;2022-11-15T01:27:19;21.43;;;15.60;;
9328;SDS011;4703;48.748;19.142;2022-11-15T01:29:46;22.70;;;15.87;;
9328;SDS011;4703;48.748;19.142;2022-11-15T01:32:13;22.03;;;17.50;;
9328;SDS011;4703;48.748;19.142;2022-11-15T01:34:41;22.83;;;14.30;;
9328;SDS011;4703;48.748;19.142;2022-11-15T01:37:08;21.90;;;16.00;;
9328;SDS011;4703;48.748;19.142;2022-11-15T01:39:35;22.47;;;15.57;;
9328;SDS011;4703;48.748;19.142;2022-11-15T01:42:02;21.77;;;15.50;;
9328;SDS011;4703;48.748;19.142;2022-11-15T01:44:49;23.40;;;16.60;;
9328;SDS011;4703;48.748;19.142;2022-11-15T01:47:39;18.97;;;14.07;;
9328;SDS011;4703;48.748;19.142;2022-11-15T01:50:10;19.80;;;14.90;;
9328;SDS011;4703;48.748;19.142;2022-11-15T01:52:42;19.60;;;14.80;;
9328;SDS011;4703;48.748;19.142;2022-11-15T01:55:16;19.47;;;13.93;;
9328;SDS011;4703;48.748;19.142;2022-11-15T01:57:50;16.43;;;14.60;;
9328;SDS011;4703;48.748;19.142;2022-11-15T02:00:21;19.83;;;14.07;;
9328;SDS011;4703;48.748;19.142;2022-11-15T02:02:48;17.13;;;14.10;;
9328;SDS011;4703;48.748;19.142;2022-11-15T02:05:15;19.63;;;14.30;;
9328;SDS011;4703;48.748;19.142;2022-11-15T02:07:42;17.83;;;13.80;;
9328;SDS011;4703;48.748;19.142;2022-11-15T02:10:10;18.10;;;13.20;;
9328;SDS011;4703;48.748;19.142;2022-11-15T02:12:43;17.17;;;12.70;;
9328;SDS011;4703;48.748;19.142;2022-11-15T02:15:10;18.77;;;13.47;;
9328;SDS011;4703;48.748;19.142;2022-11-15T02:17:48;18.83;;;14.37;;
9328;SDS011;4703;48.748;19.142;2022-11-15T02:23:53;13.07;;;11.60;;
9328;SDS011;4703;48.748;19.142;2022-11-15T02:27:11;17.67;;;13.00;;
9328;SDS011;4703;48.748;19.142;2022-11-15T02:33:00;18.37;;;12.00;;
9328;SDS011;4703;48.748;19.142;2022-11-15T02:38:22;18.67;;;12.20;;
9328;SDS011;4703;48.748;19.142;2022-11-15T02:41:20;15.07;;;11.20;;
9328;SDS011;4703;48.748;19.142;2022-11-15T02:44:24;19.63;;;11.40;;
9328;SDS011;4703;48.748;19.142;2022-11-15T02:47:02;14.50;;;11.37;;
9328;SDS011;4703;48.748;19.142;2022-11-15T02:49:39;14.23;;;10.00;;
9328;SDS011;4703;48.748;19.142;2022-11-15T02:52:16;16.40;;;11.80;;
9328;SDS011;4703;48.748;19.142;2022-11-15T02:54:53;13.57;;;11.57;;
9328;SDS011;4703;48.748;19.142;2022-11-15T03:00:05;14.17;;;11.07;;
9328;SDS011;4703;48.748;19.142;2022-11-15T03:05:32;15.80;;;10.90;;
9328;SDS011;4703;48.748;19.142;2022-11-15T03:08:05;14.70;;;11.87;;
9328;SDS011;4703;48.748;19.142;2022-11-15T03:19:18;13.87;;;10.83;;
9328;SDS011;4703;48.748;19.142;2022-11-15T03:22:05;13.40;;;10.83;;
9328;SDS011;4703;48.748;19.142;2022-11-15T03:24:38;14.63;;;11.77;;
9328;SDS011;4703;48.748;19.142;2022-11-15T03:27:05;15.23;;;11.37;;
9328;SDS011;4703;48.748;19.142;2022-11-15T03:29:35;11.40;;;10.30;;
9328;SDS011;4703;48.748;19.142;2022-11-15T03:32:17;17.00;;;12.43;;
9328;SDS011;4703;48.748;19.142;2022-11-15T03:34:51;13.80;;;11.70;;
9328;SDS011;4703;48.748;19.142;2022-11-15T03:40:27;13.80;;;10.80;;
9328;SDS011;4703;48.748;19.142;2022-11-15T03:46:11;14.40;;;9.87;;
9328;SDS011;4703;48.748;19.142;2022-11-15T03:48:53;13.90;;;10.33;;
9328;SDS011;4703;48.748;19.142;2022-11-15T03:51:31;14.87;;;10.53;;
9328;SDS011;4703;48.748;19.142;2022-11-15T03:53:58;14.77;;;10.30;;
9328;SDS011;4703;48.748;19.142;2022-11-15T03:56:25;14.20;;;10.53;;
9328;SDS011;4703;48.748;19.142;2022-11-15T03:58:52;14.90;;;10.87;;
9328;SDS011;4703;48.748;19.142;2022-11-15T04:01:19;14.07;;;10.37;;
9328;SDS011;4703;48.748;19.142;2022-11-15T04:03:46;14.10;;;9.53;;
9328;SDS011;4703;48.748;19.142;2022-11-15T04:06:13;13.40;;;11.07;;
9328;SDS011;4703;48.748;19.142;2022-11-15T04:08:40;14.83;;;10.80;;
9328;SDS011;4703;48.748;19.142;2022-11-15T04:11:07;12.80;;;9.93;;
9328;SDS011;4703;48.748;19.142;2022-11-15T04:13:34;11.67;;;9.80;;
9328;SDS011;4703;48.748;19.142;2022-11-15T04:16:01;12.73;;;10.87;;
9328;SDS011;4703;48.748;19.142;2022-11-15T04:18:28;14.33;;;10.00;;
9328;SDS011;4703;48.748;19.142;2022-11-15T04:20:55;14.57;;;11.67;;
9328;SDS011;4703;48.748;19.142;2022-11-15T04:23:40;17.60;;;9.73;;
9328;SDS011;4703;48.748;19.142;2022-11-15T04:26:17;12.27;;;10.67;;
9328;SDS011;4703;48.748;19.142;2022-11-15T04:28:47;15.97;;;10.73;;
9328;SDS011;4703;48.748;19.142;2022-11-15T04:31:33;13.80;;;10.10;;
9328;SDS011;4703;48.748;19.142;2022-11-15T04:34:00;15.87;;;11.10;;
9328;SDS011;4703;48.748;19.142;2022-11-15T04:36:27;16.87;;;11.67;;
9328;SDS011;4703;48.748;19.142;2022-11-15T04:39:12;16.90;;;11.23;;
9328;SDS011;4703;48.748;19.142;2022-11-15T04:41:40;15.03;;;11.50;;
9328;SDS011;4703;48.748;19.142;2022-11-15T04:44:06;17.17;;;11.40;;
9328;SDS011;4703;48.748;19.142;2022-11-15T04:46:33;15.03;;;11.97;;
9328;SDS011;4703;48.748;19.142;2022-11-15T04:49:00;13.57;;;10.13;;
9328;SDS011;4703;48.748;19.142;2022-11-15T04:51:27;13.20;;;11.80;;
9328;SDS011;4703;48.748;19.142;2022-11-15T04:53:54;16.17;;;12.00;;
9328;SDS011;4703;48.748;19.142;2022-11-15T04:56:21;15.57;;;12.17;;
9328;SDS011;4703;48.748;19.142;2022-11-15T04:58:49;15.40;;;12.30;;
9328;SDS011;4703;48.748;19.142;2022-11-15T05:01:16;15.07;;;11.70;;
9328;SDS011;4703;48.748;19.142;2022-11-15T05:03:43;14.67;;;12.00;;
9328;SDS011;4703;48.748;19.142;2022-11-15T05:06:30;15.10;;;11.53;;
9328;SDS011;4703;48.748;19.142;2022-11-15T05:08:57;14.20;;;12.57;;
9328;SDS011;4703;48.748;19.142;2022-11-15T05:12:41;15.20;;;11.53;;
9328;SDS011;4703;48.748;19.142;2022-11-15T05:15:11;17.83;;;12.87;;
9328;SDS011;4703;48.748;19.142;2022-11-15T05:17:38;14.27;;;12.67;;
9328;SDS011;4703;48.748;19.142;2022-11-15T05:20:05;18.27;;;12.53;;
9328;SDS011;4703;48.748;19.142;2022-11-15T05:22:33;13.27;;;11.77;;
9328;SDS011;4703;48.748;19.142;2022-11-15T05:25:00;18.60;;;13.27;;
9328;SDS011;4703;48.748;19.142;2022-11-15T05:27:27;17.67;;;12.93;;
9328;SDS011;4703;48.748;19.142;2022-11-15T05:29:54;17.40;;;12.73;;
9328;SDS011;4703;48.748;19.142;2022-11-15T05:32:21;13.87;;;12.07;;
9328;SDS011;4703;48.748;19.142;2022-11-15T05:34:48;14.70;;;12.00;;
9328;SDS011;4703;48.748;19.142;2022-11-15T05:37:15;15.43;;;12.73;;
9328;SDS011;4703;48.748;19.142;2022-11-15T05:39:43;14.53;;;12.20;;
9328;SDS011;4703;48.748;19.142;2022-11-15T05:42:11;16.77;;;13.67;;
9328;SDS011;4703;48.748;19.142;2022-11-15T05:44:43;15.97;;;12.47;;
9328;SDS011;4703;48.748;19.142;2022-11-15T05:47:19;15.80;;;13.87;;
9328;SDS011;4703;48.748;19.142;2022-11-15T05:49:50;16.87;;;12.67;;
9328;SDS011;4703;48.748;19.142;2022-11-15T05:52:20;16.83;;;12.80;;
9328;SDS011;4703;48.748;19.142;2022-11-15T05:54:51;14.73;;;12.97;;
9328;SDS011;4703;48.748;19.142;2022-11-15T05:57:19;19.10;;;14.00;;
9328;SDS011;4703;48.748;19.142;2022-11-15T05:59:46;16.00;;;12.80;;
9328;SDS011;4703;48.748;19.142;2022-11-15T06:02:13;19.03;;;13.23;;
9328;SDS011;4703;48.748;19.142;2022-11-15T06:04:40;20.10;;;13.50;;
9328;SDS011;4703;48.748;19.142;2022-11-15T06:07:07;16.33;;;12.83;;
9328;SDS011;4703;48.748;19.142;2022-11-15T06:09:34;18.07;;;12.73;;
9328;SDS011;4703;48.748;19.142;2022-11-15T06:12:01;14.97;;;12.70;;
9328;SDS011;4703;48.748;19.142;2022-11-15T06:14:28;15.40;;;12.10;;
9328;SDS011;4703;48.748;19.142;2022-11-15T06:16:56;18.00;;;13.90;;
9328;SDS011;4703;48.748;19.142;2022-11-15T06:19:22;15.23;;;12.17;;
9328;SDS011;4703;48.748;19.142;2022-11-15T06:21:49;15.17;;;12.30;;
9328;SDS011;4703;48.748;19.142;2022-11-15T06:24:16;18.43;;;13.67;;
9328;SDS011;4703;48.748;19.142;2022-11-15T06:26:43;14.77;;;13.10;;
9328;SDS011;4703;48.748;19.142;2022-11-15T06:29:10;15.07;;;12.40;;
9328;SDS011;4703;48.748;19.142;2022-11-15T06:31:37;19.27;;;13.60;;
9328;SDS011;4703;48.748;19.142;2022-11-15T06:34:04;15.00;;;12.77;;
9328;SDS011;4703;48.748;19.142;2022-11-15T06:36:31;14.80;;;13.23;;
9328;SDS011;4703;48.748;19.142;2022-11-15T06:39:05;17.73;;;13.00;;
9328;SDS011;4703;48.748;19.142;2022-11-15T06:41:35;18.20;;;14.50;;
9328;SDS011;4703;48.748;19.142;2022-11-15T06:44:02;16.77;;;15.00;;
9328;SDS011;4703;48.748;19.142;2022-11-15T06:46:29;28.77;;;21.27;;
9328;SDS011;4703;48.748;19.142;2022-11-15T06:48:56;23.73;;;20.00;;
9328;SDS011;4703;48.748;19.142;2022-11-15T06:51:23;18.80;;;14.30;;
9328;SDS011;4703;48.748;19.142;2022-11-15T06:53:50;14.20;;;12.40;;
9328;SDS011;4703;48.748;19.142;2022-11-15T06:56:17;17.00;;;13.50;;
9328;SDS011;4703;48.748;19.142;2022-11-15T06:58:44;17.50;;;13.37;;
9328;SDS011;4703;48.748;19.142;2022-11-15T07:01:11;15.60;;;11.50;;
9328;SDS011;4703;48.748;19.142;2022-11-15T07:03:40;16.37;;;12.73;;
9328;SDS011;4703;48.748;19.142;2022-11-15T07:06:08;13.50;;;11.97;;
9328;SDS011;4703;48.748;19.142;2022-11-15T07:08:36;13.63;;;11.10;;
9328;SDS011;4703;48.748;19.142;2022-11-15T07:11:05;16.63;;;12.10;;
9328;SDS011;4703;48.748;19.142;2022-11-15T07:13:34;14.83;;;11.93;;
9328;SDS011;4703;48.748;19.142;2022-11-15T07:16:03;16.47;;;11.90;;
9328;SDS011;4703;48.748;19.142;2022-11-15T07:18:33;13.97;;;11.53;;
9328;SDS011;4703;48.748;19.142;2022-11-15T07:21:02;21.40;;;14.30;;
9328;SDS011;4703;48.748;19.142;2022-11-15T07:23:31;14.03;;;12.50;;
9328;SDS011;4703;48.748;19.142;2022-11-15T07:25:59;17.37;;;12.53;;
9328;SDS011;4703;48.748;19.142;2022-11-15T07:28:26;15.20;;;13.40;;
9328;SDS011;4703;48.748;19.142;2022-11-15T07:30:54;16.80;;;13.40;;
9328;SDS011;4703;48.748;19.142;2022-11-15T07:33:21;14.40;;;12.80;;
9328;SDS011;4703;48.748;19.142;2022-11-15T07:35:48;16.40;;;12.53;;
9328;SDS011;4703;48.748;19.142;2022-11-15T07:38:15;27.40;;;19.80;;
9328;SDS011;4703;48.748;19.142;2022-11-15T07:40:45;37.77;;;26.17;;
9328;SDS011;4703;48.748;19.142;2022-11-15T07:43:13;22.37;;;16.57;;
9328;SDS011;4703;48.748;19.142;2022-11-15T07:45:41;15.07;;;12.80;;
9328;SDS011;4703;48.748;19.142;2022-11-15T07:48:10;15.80;;;12.80;;
9328;SDS011;4703;48.748;19.142;2022-11-15T07:50:40;16.93;;;13.50;;
9328;SDS011;4703;48.748;19.142;2022-11-15T07:53:08;15.17;;;12.50;;
9328;SDS011;4703;48.748;19.142;2022-11-15T07:55:36;15.73;;;11.50;;
9328;SDS011;4703;48.748;19.142;2022-11-15T07:58:09;18.27;;;14.00;;
9328;SDS011;4703;48.748;19.142;2022-11-15T08:00:37;13.70;;;12.30;;
9328;SDS011;4703;48.748;19.142;2022-11-15T08:03:05;14.67;;;12.03;;
9328;SDS011;4703;48.748;19.142;2022-11-15T08:05:38;12.70;;;11.17;;
9328;SDS011;4703;48.748;19.142;2022-11-15T08:08:07;15.50;;;12.40;;
9328;SDS011;4703;48.748;19.142;2022-11-15T08:10:36;12.43;;;11.13;;
9328;SDS011;4703;48.748;19.142;2022-11-15T08:13:07;15.33;;;12.53;;
9328;SDS011;4703;48.748;19.142;2022-11-15T08:15:36;13.57;;;12.17;;
9328;SDS011;4703;48.748;19.142;2022-11-15T08:18:10;14.77;;;13.17;;
9328;SDS011;4703;48.748;19.142;2022-11-15T08:20:39;13.23;;;11.70;;
9328;SDS011;4703;48.748;19.142;2022-11-15T08:23:08;15.37;;;11.30;;
9328;SDS011;4703;48.748;19.142;2022-11-15T08:25:37;14.77;;;10.90;;
9328;SDS011;4703;48.748;19.142;2022-11-15T08:28:06;12.97;;;10.33;;
9328;SDS011;4703;48.748;19.142;2022-11-15T08:30:34;12.10;;;10.20;;
9328;SDS011;4703;48.748;19.142;2022-11-15T08:33:04;12.43;;;11.00;;
9328;SDS011;4703;48.748;19.142;2022-11-15T08:35:31;14.00;;;11.70;;
9328;SDS011;4703;48.748;19.142;2022-11-15T08:37:58;13.10;;;10.13;;
9328;SDS011;4703;48.748;19.142;2022-11-15T08:40:25;11.73;;;10.50;;
9328;SDS011;4703;48.748;19.142;2022-11-15T08:42:53;14.23;;;12.47;;
9328;SDS011;4703;48.748;19.142;2022-11-15T08:45:20;14.97;;;11.80;;
9328;SDS011;4703;48.748;19.142;2022-11-15T08:47:47;12.20;;;10.73;;
9328;SDS011;4703;48.748;19.142;2022-11-15T08:50:19;11.97;;;10.53;;
9328;SDS011;4703;48.748;19.142;2022-11-15T08:52:46;13.73;;;10.50;;
9328;SDS011;4703;48.748;19.142;2022-11-15T08:55:16;11.90;;;10.17;;
9328;SDS011;4703;48.748;19.142;2022-11-15T08:57:43;13.50;;;10.30;;
9328;SDS011;4703;48.748;19.142;2022-11-15T09:00:11;11.77;;;9.90;;
9328;SDS011;4703;48.748;19.142;2022-11-15T09:02:39;12.50;;;11.23;;
9328;SDS011;4703;48.748;19.142;2022-11-15T09:05:07;11.60;;;10.40;;
9328;SDS011;4703;48.748;19.142;2022-11-15T09:07:34;13.50;;;9.83;;
9328;SDS011;4703;48.748;19.142;2022-11-15T09:10:02;12.17;;;10.00;;
9328;SDS011;4703;48.748;19.142;2022-11-15T09:12:29;11.37;;;10.13;;
9328;SDS011;4703;48.748;19.142;2022-11-15T09:14:57;12.07;;;10.50;;
9328;SDS011;4703;48.748;19.142;2022-11-15T09:17:24;13.10;;;11.00;;
9328;SDS011;4703;48.748;19.142;2022-11-15T09:19:51;13.23;;;11.27;;
9328;SDS011;4703;48.748;19.142;2022-11-15T09:22:18;12.77;;;10.93;;
9328;SDS011;4703;48.748;19.142;2022-11-15T09:24:45;11.23;;;9.77;;
9328;SDS011;4703;48.748;19.142;2022-11-15T09:27:12;12.33;;;11.03;;
9328;SDS011;4703;48.748;19.142;2022-11-15T09:29:39;11.80;;;10.50;;
9328;SDS011;4703;48.748;19.142;2022-11-15T09:32:06;12.43;;;10.10;;
9328;SDS011;4703;48.748;19.142;2022-11-15T09:34:33;14.87;;;13.27;;
9328;SDS011;4703;48.748;19.142;2022-11-15T09:37:00;15.60;;;12.90;;
9328;SDS011;4703;48.748;19.142;2022-11-15T09:39:27;15.83;;;12.27;;
9328;SDS011;4703;48.748;19.142;2022-11-15T09:44:56;14.00;;;10.10;;
9328;SDS011;4703;48.748;19.142;2022-11-15T09:50:57;14.17;;;9.83;;
9328;SDS011;4703;48.748;19.142;2022-11-15T09:56:36;12.27;;;10.97;;
9328;SDS011;4703;48.748;19.142;2022-11-15T10:04:35;13.00;;;11.47;;
9328;SDS011;4703;48.748;19.142;2022-11-15T10:07:06;13.73;;;12.30;;
9328;SDS011;4703;48.748;19.142;2022-11-15T10:10:00;15.60;;;12.30;;
9328;SDS011;4703;48.748;19.142;2022-11-15T10:12:45;12.23;;;10.93;;
9328;SDS011;4703;48.748;19.142;2022-11-15T10:15:15;13.47;;;11.13;;
9328;SDS011;4703;48.748;19.142;2022-11-15T10:17:55;10.60;;;9.50;;
9328;SDS011;4703;48.748;19.142;2022-11-15T10:20:49;12.33;;;9.97;;
9328;SDS011;4703;48.748;19.142;2022-11-15T10:23:23;29.70;;;22.53;;
9328;SDS011;4703;48.748;19.142;2022-11-15T10:25:51;13.33;;;11.90;;
9328;SDS011;4703;48.748;19.142;2022-11-15T10:28:28;19.03;;;12.90;;
9328;SDS011;4703;48.748;19.142;2022-11-15T10:30:58;13.47;;;10.93;;
9328;SDS011;4703;48.748;19.142;2022-11-15T10:33:37;12.20;;;10.73;;
9328;SDS011;4703;48.748;19.142;2022-11-15T10:41:36;12.77;;;9.67;;
9328;SDS011;4703;48.748;19.142;2022-11-15T10:44:12;10.23;;;9.23;;
9328;SDS011;4703;48.748;19.142;2022-11-15T10:46:48;11.73;;;10.30;;
9328;SDS011;4703;48.748;19.142;2022-11-15T10:49:54;12.20;;;10.50;;
9328;SDS011;4703;48.748;19.142;2022-11-15T10:52:22;13.77;;;11.07;;
9328;SDS011;4703;48.748;19.142;2022-11-15T10:57:32;12.47;;;10.53;;
9328;SDS011;4703;48.748;19.142;2022-11-15T11:00:05;11.40;;;10.30;;
9328;SDS011;4703;48.748;19.142;2022-11-15T11:03:23;12.37;;;9.93;;
9328;SDS011;4703;48.748;19.142;2022-11-15T11:06:05;12.30;;;10.57;;
9328;SDS011;4703;48.748;19.142;2022-11-15T11:08:35;10.30;;;9.20;;
9328;SDS011;4703;48.748;19.142;2022-11-15T11:11:03;12.53;;;9.87;;
9328;SDS011;4703;48.748;19.142;2022-11-15T11:21:51;15.87;;;9.73;;
9328;SDS011;4703;48.748;19.142;2022-11-15T11:30:17;12.20;;;10.80;;
9328;SDS011;4703;48.748;19.142;2022-11-15T11:32:54;20.93;;;17.63;;
9328;SDS011;4703;48.748;19.142;2022-11-15T11:47:11;12.43;;;11.20;;
9328;SDS011;4703;48.748;19.142;2022-11-15T12:00:41;12.40;;;11.10;;
9328;SDS011;4703;48.748;19.142;2022-11-15T12:03:33;15.03;;;11.73;;
9328;SDS011;4703;48.748;19.142;2022-11-15T12:06:28;15.80;;;14.20;;
9328;SDS011;4703;48.748;19.142;2022-11-15T12:14:50;17.93;;;15.93;;
9328;SDS011;4703;48.748;19.142;2022-11-15T12:17:23;21.73;;;16.00;;
9328;SDS011;4703;48.748;19.142;2022-11-15T12:19:52;29.27;;;23.23;;
9328;SDS011;4703;48.748;19.142;2022-11-15T12:22:35;20.57;;;18.43;;
9328;SDS011;4703;48.748;19.142;2022-11-15T12:25:27;22.13;;;19.50;;
9328;SDS011;4703;48.748;19.142;2022-11-15T12:28:19;25.40;;;20.97;;
9328;SDS011;4703;48.748;19.142;2022-11-15T12:31:02;44.60;;;35.97;;
9328;SDS011;4703;48.748;19.142;2022-11-15T12:34:15;27.90;;;22.40;;
9328;SDS011;4703;48.748;19.142;2022-11-15T12:36:46;28.97;;;20.20;;
9328;SDS011;4703;48.748;19.142;2022-11-15T12:39:15;23.13;;;20.50;;
9328;SDS011;4703;48.748;19.142;2022-11-15T12:49:55;25.40;;;20.73;;
9328;SDS011;4703;48.748;19.142;2022-11-15T12:52:22;25.47;;;20.07;;
9328;SDS011;4703;48.748;19.142;2022-11-15T12:54:50;24.47;;;21.90;;
9328;SDS011;4703;48.748;19.142;2022-11-15T12:57:29;23.10;;;19.47;;
9328;SDS011;4703;48.748;19.142;2022-11-15T13:02:41;26.00;;;20.87;;
9328;SDS011;4703;48.748;19.142;2022-11-15T13:28:33;26.13;;;21.90;;
9328;SDS011;4703;48.748;19.142;2022-11-15T13:31:19;27.13;;;23.03;;
9328;SDS011;4703;48.748;19.142;2022-11-15T13:34:14;35.63;;;28.93;;
9328;SDS011;4703;48.748;19.142;2022-11-15T13:37:26;38.00;;;29.07;;
9328;SDS011;4703;48.748;19.142;2022-11-15T13:39:57;35.90;;;28.30;;
9328;SDS011;4703;48.748;19.142;2022-11-15T13:42:46;40.70;;;30.90;;
9328;SDS011;4703;48.748;19.142;2022-11-15T13:45:14;27.03;;;22.63;;
9328;SDS011;4703;48.748;19.142;2022-11-15T13:47:43;28.77;;;22.43;;
9328;SDS011;4703;48.748;19.142;2022-11-15T13:50:11;25.43;;;21.60;;
9328;SDS011;4703;48.748;19.142;2022-11-15T13:52:39;29.30;;;21.57;;
9328;SDS011;4703;48.748;19.142;2022-11-15T13:55:13;24.23;;;20.70;;
9328;SDS011;4703;48.748;19.142;2022-11-15T13:57:51;26.87;;;21.90;;
9328;SDS011;4703;48.748;19.142;2022-11-15T14:03:21;49.40;;;34.47;;
9328;SDS011;4703;48.748;19.142;2022-11-15T14:08:42;28.47;;;21.17;;
9328;SDS011;4703;48.748;19.142;2022-11-15T14:11:33;24.23;;;20.30;;
9328;SDS011;4703;48.748;19.142;2022-11-15T14:16:34;24.03;;;21.43;;
9328;SDS011;4703;48.748;19.142;2022-11-15T14:19:11;23.80;;;21.10;;
9328;SDS011;4703;48.748;19.142;2022-11-15T14:22:13;23.03;;;20.27;;
9328;SDS011;4703;48.748;19.142;2022-11-15T14:25:12;25.13;;;21.57;;
9328;SDS011;4703;48.748;19.142;2022-11-15T14:30:58;24.10;;;20.57;;
9328;SDS011;4703;48.748;19.142;2022-11-15T14:36:01;24.63;;;21.90;;
9328;SDS011;4703;48.748;19.142;2022-11-15T14:38:38;67.03;;;49.60;;
9328;SDS011;4703;48.748;19.142;2022-11-15T14:41:10;43.53;;;32.47;;
9328;SDS011;4703;48.748;19.142;2022-11-15T14:43:49;25.93;;;21.37;;
9328;SDS011;4703;48.748;19.142;2022-11-15T14:46:17;26.30;;;22.03;;
9328;SDS011;4703;48.748;19.142;2022-11-15T14:48:44;27.53;;;21.57;;
9328;SDS011;4703;48.748;19.142;2022-11-15T14:51:12;26.03;;;21.00;;
9328;SDS011;4703;48.748;19.142;2022-11-15T14:53:43;25.60;;;22.23;;
9328;SDS011;4703;48.748;19.142;2022-11-15T14:56:11;26.37;;;21.73;;
9328;SDS011;4703;48.748;19.142;2022-11-15T14:58:39;27.07;;;21.30;;
9328;SDS011;4703;48.748;19.142;2022-11-15T15:01:16;25.73;;;21.03;;
9328;SDS011;4703;48.748;19.142;2022-11-15T15:03:48;24.20;;;20.50;;
9328;SDS011;4703;48.748;19.142;2022-11-15T15:06:15;26.10;;;20.73;;
9328;SDS011;4703;48.748;19.142;2022-11-15T15:08:44;27.70;;;21.63;;
9328;SDS011;4703;48.748;19.142;2022-11-15T15:11:13;26.60;;;21.37;;
9328;SDS011;4703;48.748;19.142;2022-11-15T15:13:45;22.20;;;19.73;;
9328;SDS011;4703;48.748;19.142;2022-11-15T15:16:12;25.30;;;20.83;;
9328;SDS011;4703;48.748;19.142;2022-11-15T15:18:39;23.33;;;20.53;;
9328;SDS011;4703;48.748;19.142;2022-11-15T15:21:15;25.43;;;20.53;;
9328;SDS011;4703;48.748;19.142;2022-11-15T15:23:57;24.50;;;20.10;;
9328;SDS011;4703;48.748;19.142;2022-11-15T15:26:24;21.97;;;19.40;;
9328;SDS011;4703;48.748;19.142;2022-11-15T15:28:51;25.00;;;20.17;;
9328;SDS011;4703;48.748;19.142;2022-11-15T15:31:18;25.50;;;21.63;;
9328;SDS011;4703;48.748;19.142;2022-11-15T15:33:45;21.13;;;18.93;;
9328;SDS011;4703;48.748;19.142;2022-11-15T15:36:13;27.13;;;21.33;;
9328;SDS011;4703;48.748;19.142;2022-11-15T15:38:43;29.10;;;21.50;;
9328;SDS011;4703;48.748;19.142;2022-11-15T15:41:13;24.50;;;21.20;;
9328;SDS011;4703;48.748;19.142;2022-11-15T15:43:42;27.00;;;22.80;;
9328;SDS011;4703;48.748;19.142;2022-11-15T15:46:14;28.30;;;23.57;;
9328;SDS011;4703;48.748;19.142;2022-11-15T15:48:43;26.40;;;21.43;;
9328;SDS011;4703;48.748;19.142;2022-11-15T15:51:10;23.93;;;20.43;;
9328;SDS011;4703;48.748;19.142;2022-11-15T15:53:45;24.50;;;21.17;;
9328;SDS011;4703;48.748;19.142;2022-11-15T15:56:13;24.50;;;20.67;;
9328;SDS011;4703;48.748;19.142;2022-11-15T15:58:40;25.80;;;22.30;;
9328;SDS011;4703;48.748;19.142;2022-11-15T16:01:07;28.40;;;23.60;;
9328;SDS011;4703;48.748;19.142;2022-11-15T16:03:34;32.43;;;27.37;;
9328;SDS011;4703;48.748;19.142;2022-11-15T16:06:01;62.70;;;45.20;;
9328;SDS011;4703;48.748;19.142;2022-11-15T16:08:30;36.60;;;29.40;;
9328;SDS011;4703;48.748;19.142;2022-11-15T16:11:17;30.23;;;23.83;;
9328;SDS011;4703;48.748;19.142;2022-11-15T16:13:44;29.13;;;23.50;;
9328;SDS011;4703;48.748;19.142;2022-11-15T16:16:12;29.37;;;23.57;;
9328;SDS011;4703;48.748;19.142;2022-11-15T16:18:40;28.13;;;24.23;;
9328;SDS011;4703;48.748;19.142;2022-11-15T16:21:07;31.50;;;24.77;;
9328;SDS011;4703;48.748;19.142;2022-11-15T16:23:34;29.73;;;23.67;;
9328;SDS011;4703;48.748;19.142;2022-11-15T16:26:01;26.20;;;23.37;;
9328;SDS011;4703;48.748;19.142;2022-11-15T16:28:38;26.70;;;22.27;;
9328;SDS011;4703;48.748;19.142;2022-11-15T16:31:07;32.13;;;23.60;;
9328;SDS011;4703;48.748;19.142;2022-11-15T16:33:36;25.00;;;22.40;;
9328;SDS011;4703;48.748;19.142;2022-11-15T16:36:05;31.90;;;25.67;;
9328;SDS011;4703;48.748;19.142;2022-11-15T16:38:41;32.27;;;25.43;;
9328;SDS011;4703;48.748;19.142;2022-11-15T16:41:08;28.37;;;24.37;;
9328;SDS011;4703;48.748;19.142;2022-11-15T16:43:35;32.20;;;25.00;;
9328;SDS011;4703;48.748;19.142;2022-11-15T16:46:13;31.13;;;26.27;;
9328;SDS011;4703;48.748;19.142;2022-11-15T16:48:48;28.13;;;24.87;;
9328;SDS011;4703;48.748;19.142;2022-11-15T16:51:15;28.23;;;23.97;;
9328;SDS011;4703;48.748;19.142;2022-11-15T16:53:42;29.77;;;24.10;;
9328;SDS011;4703;48.748;19.142;2022-11-15T16:56:31;31.10;;;26.00;;
9328;SDS011;4703;48.748;19.142;2022-11-15T16:58:57;31.40;;;26.70;;
9328;SDS011;4703;48.748;19.142;2022-11-15T17:01:32;34.17;;;27.20;;
9328;SDS011;4703;48.748;19.142;2022-11-15T17:04:02;32.67;;;27.33;;
9328;SDS011;4703;48.748;19.142;2022-11-15T17:06:41;32.10;;;27.67;;
9328;SDS011;4703;48.748;19.142;2022-11-15T17:09:15;33.47;;;28.00;;
9328;SDS011;4703;48.748;19.142;2022-11-15T17:11:45;33.07;;;27.40;;
9328;SDS011;4703;48.748;19.142;2022-11-15T17:14:12;35.37;;;28.20;;
9328;SDS011;4703;48.748;19.142;2022-11-15T17:16:39;33.97;;;28.93;;
9328;SDS011;4703;48.748;19.142;2022-11-15T17:19:14;37.03;;;30.90;;
9328;SDS011;4703;48.748;19.142;2022-11-15T17:21:44;36.73;;;31.77;;
9328;SDS011;4703;48.748;19.142;2022-11-15T17:24:12;35.23;;;30.00;;
9328;SDS011;4703;48.748;19.142;2022-11-15T17:26:39;46.20;;;33.97;;